Time;durP1;ratioP1;P1;durP2;ratioP2;P2;SDS_P1;SDS_P2;PMS_P1;PMS_P2;Temp;Humidity;BMP_temperature;BMP_pressure;BME280_temperature;BME280_humidity;BME280_pressure;Samples;Min_cycle;Max_cycle;Signal;HPM_P1;HPM_P2
2022/12/11 00:01:19;;;;;;;15.32;9.82;;;8.00;86.30;;;;;;5032311;28;20057;-12
2022/12/11 00:03:46;;;;;;;15.50;10.45;;;8.00;86.40;;;;;;5031362;28;20029;-13
2022/12/11 00:06:14;;;;;;;16.23;10.65;;;7.90;86.40;;;;;;5032820;28;20052;-12
2022/12/11 00:08:40;;;;;;;15.38;9.40;;;8.00;86.50;;;;;;5032573;28;20079;-13
2022/12/11 00:11:12;;;;;;;23.52;12.90;;;8.00;86.50;;;;;;5032787;28;20477;-11
2022/12/11 00:13:38;;;;;;;18.00;11.55;;;8.00;86.50;;;;;;5032713;28;20105;-12
2022/12/11 00:16:04;;;;;;;15.55;10.55;;;8.00;86.50;;;;;;5032436;28;20160;-11
2022/12/11 00:18:30;;;;;;;17.48;10.55;;;8.00;86.50;;;;;;5032376;28;20072;-12
2022/12/11 00:21:04;;;;;;;16.20;11.13;;;8.00;86.40;;;;;;5032132;28;20025;-12
2022/12/11 00:23:30;;;;;;;19.50;12.07;;;8.00;86.50;;;;;;5032710;28;20029;-12
2022/12/11 00:25:56;;;;;;;19.83;11.98;;;8.00;86.50;;;;;;5033018;28;20104;-12
2022/12/11 00:28:22;;;;;;;14.85;10.27;;;8.00;86.40;;;;;;5031054;28;20124;-12
2022/12/11 00:30:48;;;;;;;15.98;11.63;;;8.00;86.40;;;;;;5032109;28;20064;-12
2022/12/11 00:33:15;;;;;;;16.95;11.30;;;8.00;86.50;;;;;;5032399;28;20021;-13
2022/12/11 00:35:44;;;;;;;17.55;11.63;;;8.00;86.50;;;;;;5032762;28;20033;-12
2022/12/11 00:38:18;;;;;;;16.02;10.20;;;7.90;86.50;;;;;;5032339;28;20033;-13
2022/12/11 00:40:44;;;;;;;16.45;9.27;;;8.00;86.50;;;;;;5032632;28;20033;-12
2022/12/11 00:43:10;;;;;;;16.80;10.18;;;7.90;86.60;;;;;;5032591;28;20388;-12
2022/12/11 00:45:44;;;;;;;14.68;9.20;;;8.00;86.60;;;;;;5036093;28;20032;-12
2022/12/11 00:48:11;;;;;;;13.60;8.80;;;7.90;86.60;;;;;;5036125;28;20049;-11
2022/12/11 00:50:38;;;;;;;12.63;8.32;;;7.90;86.60;;;;;;5036051;28;20529;-12
2022/12/11 00:53:05;;;;;;;11.30;7.13;;;7.90;86.70;;;;;;5035755;28;20377;-12
2022/12/11 00:55:34;;;;;;;9.27;6.38;;;7.90;86.70;;;;;;5036073;28;20489;-13
2022/12/11 00:58:01;;;;;;;9.15;5.85;;;7.90;86.70;;;;;;5035818;28;20087;-12
2022/12/11 01:00:26;;;;;;;10.70;6.88;;;7.90;86.80;;;;;;5035527;28;20119;-12
2022/12/11 01:02:52;;;;;;;11.93;7.57;;;8.00;86.90;;;;;;5035381;28;20117;-12
2022/12/11 01:05:21;;;;;;;11.02;7.18;;;8.00;86.80;;;;;;5035753;28;20026;-12
2022/12/11 01:07:48;;;;;;;10.82;7.13;;;8.00;86.80;;;;;;5035681;28;20029;-12
2022/12/11 01:10:23;;;;;;;10.63;6.78;;;8.10;86.80;;;;;;5035545;28;20049;-13
2022/12/11 01:13:06;;;;;;;10.27;6.82;;;8.00;86.80;;;;;;5035428;28;20087;-12
2022/12/11 01:15:38;;;;;;;9.10;5.50;;;8.00;86.80;;;;;;5035377;28;20561;-13
2022/12/11 01:18:04;;;;;;;7.95;5.40;;;8.00;86.80;;;;;;5035476;28;20108;-12
2022/12/11 01:20:30;;;;;;;7.75;4.78;;;8.00;86.80;;;;;;5035498;28;20079;-13
2022/12/11 01:22:59;;;;;;;10.75;6.75;;;8.10;86.90;;;;;;5035157;28;20037;-13
2022/12/11 01:25:26;;;;;;;9.25;5.80;;;8.10;86.90;;;;;;5035643;28;20025;-14
2022/12/11 01:27:54;;;;;;;9.30;6.32;;;8.10;86.90;;;;;;5035489;28;20053;-13
2022/12/11 01:30:22;;;;;;;11.00;5.95;;;8.10;86.80;;;;;;5035432;28;20036;-12
2022/12/11 01:32:48;;;;;;;10.90;7.03;;;8.10;86.80;;;;;;5035140;28;20032;-13
2022/12/11 01:35:15;;;;;;;11.32;6.28;;;8.10;86.80;;;;;;5035122;28;20026;-13
2022/12/11 01:37:41;;;;;;;9.57;5.93;;;8.10;86.90;;;;;;5033801;28;20098;-13
2022/12/11 01:40:10;;;;;;;9.98;5.68;;;8.10;86.90;;;;;;5035411;28;20445;-13
2022/12/11 01:42:37;;;;;;;10.88;6.75;;;8.10;86.90;;;;;;5035134;28;20493;-14
2022/12/11 01:45:20;;;;;;;10.05;5.65;;;8.10;86.90;;;;;;5035518;28;20507;-13
2022/12/11 01:48:02;;;;;;;12.02;7.70;;;8.10;86.90;;;;;;5034912;28;20022;-14
2022/12/11 01:50:32;;;;;;;9.75;6.60;;;8.20;86.90;;;;;;5035269;28;20080;-13
2022/12/11 01:52:59;;;;;;;9.73;6.20;;;8.10;86.80;;;;;;5034668;28;20071;-13
2022/12/11 01:55:25;;;;;;;10.60;6.63;;;8.10;86.60;;;;;;5034900;28;20026;-14
2022/12/11 01:57:52;;;;;;;9.27;6.18;;;8.10;86.60;;;;;;5034695;28;20034;-13
2022/12/11 02:00:20;;;;;;;8.80;5.88;;;8.10;86.60;;;;;;5034952;28;20087;-13
2022/12/11 02:02:46;;;;;;;8.48;5.53;;;8.00;86.70;;;;;;5034442;28;20041;-13
2022/12/11 02:05:12;;;;;;;10.20;6.35;;;8.00;86.80;;;;;;5034893;28;20033;-12
2022/12/11 02:07:45;;;;;;;10.30;6.47;;;7.90;87.30;;;;;;5034556;28;20037;-14
2022/12/11 02:10:11;;;;;;;10.05;5.32;;;7.90;87.40;;;;;;5034885;28;20041;-14
2022/12/11 02:13:06;;;;;;;7.78;5.20;;;7.90;87.30;;;;;;5033323;28;20028;-14
2022/12/11 02:15:34;;;;;;;8.75;5.70;;;7.90;87.70;;;;;;5034583;28;20543;-13
2022/12/11 02:18:30;;;;;;;7.60;5.03;;;7.90;87.70;;;;;;5034444;28;20028;-13
2022/12/11 02:21:00;;;;;;;7.30;5.00;;;7.90;87.50;;;;;;5034490;28;20110;-12
2022/12/11 02:23:37;;;;;;;7.93;5.00;;;7.90;87.50;;;;;;5034605;28;20029;-12
2022/12/11 02:26:22;;;;;;;8.57;5.32;;;7.90;87.50;;;;;;5034248;28;20122;-13
2022/12/11 02:28:59;;;;;;;8.68;5.38;;;7.90;87.60;;;;;;5033961;28;20518;-12
2022/12/11 02:31:38;;;;;;;9.13;5.93;;;7.90;87.50;;;;;;5034632;28;20026;-13
2022/12/11 02:34:45;;;;;;;8.85;5.97;;;7.90;87.30;;;;;;5034400;28;20481;-13
2022/12/11 02:37:20;;;;;;;9.68;6.38;;;7.90;87.30;;;;;;4973156;28;20027;-13
2022/12/11 02:39:48;;;;;;;8.65;6.30;;;7.90;87.30;;;;;;4973506;28;20046;-12
2022/12/11 02:42:15;;;;;;;9.00;6.13;;;7.90;87.50;;;;;;4973566;28;20392;-12
2022/12/11 02:44:42;;;;;;;7.75;4.80;;;7.90;87.50;;;;;;4972942;28;20053;-13
2022/12/11 02:47:13;;;;;;;10.05;6.13;;;7.80;87.40;;;;;;4973375;28;20082;-13
2022/12/11 02:49:43;;;;;;;8.70;5.30;;;7.90;87.40;;;;;;4956832;28;20031;-12
2022/12/11 02:52:13;;;;;;;6.93;4.68;;;7.90;87.40;;;;;;4972875;28;20067;-13
2022/12/11 02:54:43;;;;;;;8.27;5.25;;;7.90;87.50;;;;;;4972966;28;20027;-12
2022/12/11 02:57:16;;;;;;;7.93;5.20;;;7.90;87.50;;;;;;4972601;28;20023;-13
2022/12/11 02:59:44;;;;;;;9.27;5.67;;;7.80;87.50;;;;;;4972630;28;20518;-13
2022/12/11 03:02:14;;;;;;;9.55;6.15;;;7.80;87.50;;;;;;4972506;28;20305;-12
2022/12/11 03:04:42;;;;;;;9.60;6.18;;;7.80;87.60;;;;;;4973400;28;20031;-13
2022/12/11 03:07:30;;;;;;;10.02;6.60;;;7.80;87.80;;;;;;4971739;28;20502;-13
2022/12/11 03:09:56;;;;;;;9.18;5.60;;;7.70;88.00;;;;;;4975253;28;20027;-12
2022/12/11 03:12:27;;;;;;;9.13;5.93;;;7.70;88.10;;;;;;5033767;28;20053;-13
2022/12/11 03:14:54;;;;;;;8.77;5.53;;;7.70;88.30;;;;;;5033557;28;20152;-13
2022/12/11 03:17:43;;;;;;;8.68;5.53;;;7.70;88.10;;;;;;5033294;28;20032;-14
2022/12/11 03:20:15;;;;;;;8.55;5.70;;;7.70;88.20;;;;;;5033275;28;20029;-13
2022/12/11 03:22:45;;;;;;;9.65;5.93;;;7.70;88.10;;;;;;5033470;28;20159;-12
2022/12/11 03:25:25;;;;;;;10.35;5.78;;;7.70;88.00;;;;;;5033031;28;20029;-12
2022/12/11 03:28:10;;;;;;;9.77;6.55;;;7.70;88.00;;;;;;5033440;28;20106;-12
2022/12/11 03:30:39;;;;;;;9.95;5.97;;;7.70;88.00;;;;;;5032966;28;20471;-12
2022/12/11 03:33:30;;;;;;;8.57;5.70;;;7.70;88.00;;;;;;5032832;28;20032;-12
2022/12/11 03:36:07;;;;;;;9.93;6.65;;;7.70;88.00;;;;;;5033041;28;20028;-12
2022/12/11 03:38:40;;;;;;;9.98;6.90;;;7.70;88.00;;;;;;5033258;28;20026;-12
2022/12/11 03:41:09;;;;;;;11.23;7.72;;;7.70;87.90;;;;;;5032700;28;20030;-12
2022/12/11 03:43:36;;;;;;;10.63;6.55;;;7.70;88.00;;;;;;5032910;28;20084;-11
2022/12/11 03:46:11;;;;;;;11.40;7.97;;;7.70;88.00;;;;;;5031499;28;20337;-11
2022/12/11 03:48:41;;;;;;;12.80;7.20;;;7.80;88.10;;;;;;5032896;28;20431;-12
2022/12/11 03:51:08;;;;;;;10.75;6.18;;;7.70;88.20;;;;;;5032650;28;20025;-12
2022/12/11 03:53:36;;;;;;;11.23;7.07;;;7.70;88.10;;;;;;5032733;28;20385;-12
2022/12/11 03:56:05;;;;;;;11.20;7.20;;;7.70;88.20;;;;;;5033016;28;20030;-12
2022/12/11 03:58:32;;;;;;;11.40;6.72;;;7.70;88.10;;;;;;5033005;28;20037;-12
2022/12/11 04:00:58;;;;;;;9.65;6.05;;;7.70;88.00;;;;;;5032006;28;20155;-12
2022/12/11 04:03:24;;;;;;;11.52;6.72;;;7.70;88.00;;;;;;5033026;28;20108;-11
2022/12/11 04:05:52;;;;;;;9.82;6.55;;;7.60;88.00;;;;;;5032890;28;20107;-12
2022/12/11 04:08:22;;;;;;;10.43;6.53;;;7.60;88.00;;;;;;5033120;28;20099;-12
2022/12/11 04:11:33;;;;;;;9.98;6.13;;;7.60;88.00;;;;;;5032601;28;20022;-12
2022/12/11 04:13:40;;;;;;;9.65;6.53;;;7.60;88.00;;;;;;5032947;28;20076;-13
2022/12/11 04:16:06;;;;;;;10.43;6.72;;;7.50;88.00;;;;;;5032400;28;20124;-12
2022/12/11 04:24:16;;;;;;;8.50;5.22;;;7.50;88.00;;;;;;5036737;28;20047;-13
2022/12/11 04:26:44;;;;;;;8.75;4.72;;;7.40;88.10;;;;;;5036537;28;20099;-13
2022/12/11 04:29:11;;;;;;;5.03;3.35;;;7.30;88.10;;;;;;5036200;28;20033;-13
2022/12/11 04:31:36;;;;;;;4.68;3.13;;;7.30;88.00;;;;;;5036876;28;20064;-12
2022/12/11 04:34:03;;;;;;;3.47;2.50;;;7.10;87.70;;;;;;5035039;28;20029;-13
2022/12/11 04:36:29;;;;;;;3.10;2.13;;;7.00;87.70;;;;;;5036326;28;20018;-13
2022/12/11 04:38:55;;;;;;;2.80;2.05;;;6.90;87.50;;;;;;5036112;28;20032;-13
2022/12/11 04:41:21;;;;;;;2.70;1.92;;;6.80;87.30;;;;;;5036760;28;20064;-13
2022/12/11 04:43:47;;;;;;;2.08;1.50;;;6.80;87.50;;;;;;5036288;28;20096;-12
2022/12/11 04:46:16;;;;;;;3.88;1.83;;;6.60;87.50;;;;;;5036073;28;20036;-13
2022/12/11 04:48:43;;;;;;;2.92;1.60;;;6.60;87.50;;;;;;5036196;28;20071;-14
2022/12/11 04:51:09;;;;;;;2.67;1.83;;;6.50;87.60;;;;;;5035908;28;20385;-12
2022/12/11 04:53:36;;;;;;;2.88;1.75;;;6.40;87.70;;;;;;5036389;28;20033;-12
2022/12/11 04:56:06;;;;;;;3.20;1.70;;;6.40;87.70;;;;;;5035942;28;20033;-13
2022/12/11 04:58:34;;;;;;;1.30;1.20;;;6.30;87.70;;;;;;5035894;28;20033;-12
2022/12/11 05:01:06;;;;;;;3.13;1.30;;;6.30;87.70;;;;;;5035285;28;20140;-13
2022/12/11 05:03:32;;;;;;;1.52;1.20;;;6.30;87.90;;;;;;5035926;28;20060;-14
2022/12/11 05:05:58;;;;;;;1.52;1.10;;;6.20;87.90;;;;;;5035946;28;20026;-14
2022/12/11 05:08:24;;;;;;;1.42;1.20;;;6.20;87.80;;;;;;5035907;28;20049;-13
2022/12/11 05:11:11;;;;;;;1.50;1.00;;;6.20;87.90;;;;;;5034156;28;20124;-14
2022/12/11 05:13:37;;;;;;;0.93;0.93;;;6.10;88.00;;;;;;5035975;28;20330;-11
2022/12/11 05:16:05;;;;;;;1.02;1.00;;;6.10;88.10;;;;;;5035424;28;20037;-11
2022/12/11 05:18:31;;;;;;;1.08;0.90;;;6.10;88.10;;;;;;5035906;28;20034;-11
2022/12/11 05:20:59;;;;;;;0.70;0.70;;;6.00;88.20;;;;;;5035269;28;20033;-11
2022/12/11 05:23:26;;;;;;;1.25;0.90;;;6.00;88.30;;;;;;5035339;28;20025;-11
2022/12/11 05:25:54;;;;;;;2.05;1.17;;;5.90;88.60;;;;;;5035707;28;20060;-11
2022/12/11 05:28:21;;;;;;;0.82;0.80;;;5.90;88.60;;;;;;5035752;28;20029;-12
2022/12/11 05:30:47;;;;;;;1.63;1.20;;;5.90;88.60;;;;;;5033050;28;20037;-14
2022/12/11 05:33:13;;;;;;;1.42;1.10;;;5.90;88.60;;;;;;5035249;28;20017;-11
2022/12/11 05:35:46;;;;;;;0.95;0.82;;;5.90;88.60;;;;;;5035348;28;20039;-12
2022/12/11 05:38:12;;;;;;;1.17;1.08;;;5.90;88.40;;;;;;5034365;28;20022;-10
2022/12/11 05:40:38;;;;;;;1.92;0.80;;;5.80;88.30;;;;;;5035416;28;20047;-12
2022/12/11 05:43:04;;;;;;;1.15;1.05;;;5.90;88.30;;;;;;5035126;28;20452;-11
2022/12/11 05:45:30;;;;;;;1.42;0.90;;;5.80;88.20;;;;;;5034977;28;20052;-12
2022/12/11 05:47:56;;;;;;;0.73;0.73;;;5.80;88.10;;;;;;5035335;28;20048;-11
2022/12/11 05:50:22;;;;;;;0.80;0.80;;;5.80;88.00;;;;;;5035318;28;20501;-12
2022/12/11 05:52:48;;;;;;;1.40;1.00;;;5.70;87.90;;;;;;5034714;28;20094;-13
2022/12/11 05:55:14;;;;;;;1.17;1.02;;;5.70;87.90;;;;;;5034711;28;20029;-12
2022/12/11 05:57:40;;;;;;;1.58;0.73;;;5.70;88.00;;;;;;5035251;28;20021;-12
2022/12/11 06:00:07;;;;;;;0.75;0.75;;;5.60;88.00;;;;;;5034671;28;20030;-12
2022/12/11 06:02:35;;;;;;;2.80;0.90;;;5.60;88.00;;;;;;5034473;28;20060;-12
2022/12/11 06:05:01;;;;;;;1.33;0.90;;;5.60;88.00;;;;;;5033348;28;20125;-12
2022/12/11 06:07:27;;;;;;;1.13;0.90;;;5.60;88.00;;;;;;5034808;28;20111;-12
2022/12/11 06:09:53;;;;;;;0.90;0.80;;;5.60;88.00;;;;;;5035296;28;20381;-12
2022/12/11 06:12:20;;;;;;;1.05;0.82;;;5.50;88.10;;;;;;5033381;28;20428;-11
2022/12/11 06:14:46;;;;;;;0.88;0.80;;;5.50;88.10;;;;;;5034420;28;20543;-11
2022/12/11 06:17:12;;;;;;;1.02;0.90;;;5.50;88.20;;;;;;5034284;28;20029;-12
2022/12/11 06:19:37;;;;;;;1.05;0.85;;;5.50;88.20;;;;;;5034862;28;20021;-12
2022/12/11 06:22:04;;;;;;;1.42;1.00;;;5.50;88.30;;;;;;5034315;28;20083;-12
2022/12/11 06:24:30;;;;;;;0.88;0.88;;;5.50;88.30;;;;;;5034453;28;20048;-12
2022/12/11 06:26:56;;;;;;;1.42;1.02;;;5.50;88.40;;;;;;5034083;28;20029;-12
2022/12/11 06:29:22;;;;;;;1.35;1.00;;;5.50;88.40;;;;;;5034170;28;20033;-12
2022/12/11 06:31:48;;;;;;;1.23;1.13;;;5.50;88.40;;;;;;5034181;28;20083;-13
2022/12/11 06:34:14;;;;;;;1.30;1.20;;;5.50;88.40;;;;;;5034562;28;20029;-11
2022/12/11 06:36:40;;;;;;;1.20;1.10;;;5.40;88.50;;;;;;5034131;28;20175;-11
2022/12/11 06:39:07;;;;;;;0.95;0.95;;;5.40;88.40;;;;;;5033944;28;20026;-12
2022/12/11 06:41:33;;;;;;;1.40;1.30;;;5.40;88.40;;;;;;5032890;28;20112;-12
2022/12/11 06:43:59;;;;;;;2.60;1.23;;;5.40;88.40;;;;;;5034216;28;20156;-12
2022/12/11 06:46:24;;;;;;;1.23;1.13;;;5.40;88.40;;;;;;5033871;28;20394;-12
2022/12/11 06:48:51;;;;;;;1.50;1.25;;;5.40;88.50;;;;;;5033921;28;20033;-11
2022/12/11 06:51:21;;;;;;;1.95;1.70;;;5.40;88.50;;;;;;5034177;28;20021;-12
2022/12/11 06:53:55;;;;;;;1.45;1.35;;;5.40;88.60;;;;;;5033960;28;20018;-12
2022/12/11 06:56:22;;;;;;;2.10;1.65;;;5.40;88.60;;;;;;5033852;28;20064;-12
2022/12/11 06:58:48;;;;;;;1.75;1.58;;;5.40;88.60;;;;;;5033600;28;20485;-13
2022/12/11 07:01:16;;;;;;;2.42;1.67;;;5.40;88.70;;;;;;5032013;28;20055;-12
2022/12/11 07:03:45;;;;;;;2.50;1.40;;;5.40;88.50;;;;;;5033714;28;20485;-13
2022/12/11 07:06:11;;;;;;;1.65;1.50;;;5.40;88.40;;;;;;5033950;28;20029;-13
2022/12/11 07:08:38;;;;;;;1.85;1.48;;;5.40;88.10;;;;;;5033529;28;20489;-12
2022/12/11 07:11:06;;;;;;;2.13;1.60;;;5.40;88.00;;;;;;5033589;28;20029;-12
2022/12/11 07:13:32;;;;;;;1.67;1.52;;;5.30;87.70;;;;;;5033681;28;20025;-12
2022/12/11 07:16:00;;;;;;;1.50;1.35;;;5.20;87.70;;;;;;5033229;28;20036;-12
2022/12/11 07:18:27;;;;;;;2.25;1.58;;;5.20;87.70;;;;;;5033611;28;20022;-12
2022/12/11 07:20:53;;;;;;;1.98;1.58;;;5.20;87.50;;;;;;5033161;28;20102;-13
2022/12/11 07:23:20;;;;;;;1.30;1.10;;;5.10;87.60;;;;;;5033113;28;20048;-12
2022/12/11 07:25:46;;;;;;;2.33;1.17;;;5.10;87.30;;;;;;5033604;28;20377;-13
2022/12/11 07:28:12;;;;;;;2.20;1.40;;;5.10;87.30;;;;;;5033587;28;20485;-13
2022/12/11 07:30:38;;;;;;;1.60;1.25;;;5.00;87.40;;;;;;5033178;28;20026;-12
2022/12/11 07:33:05;;;;;;;1.83;1.30;;;5.10;87.40;;;;;;5032982;28;20439;-12
2022/12/11 07:35:34;;;;;;;1.90;1.50;;;5.10;87.50;;;;;;5033039;28;20397;-12
2022/12/11 07:38:00;;;;;;;4.28;2.63;;;5.00;87.40;;;;;;5033067;28;20032;-13
2022/12/11 07:40:26;;;;;;;2.00;1.73;;;5.00;87.40;;;;;;5032819;28;20101;-14
2022/12/11 07:42:52;;;;;;;2.58;1.70;;;5.00;87.60;;;;;;5032937;28;20132;-13
2022/12/11 07:45:18;;;;;;;2.42;1.63;;;5.00;87.60;;;;;;5032733;28;20065;-15
2022/12/11 07:47:44;;;;;;;2.72;1.70;;;5.00;87.60;;;;;;5032900;28;20568;-12
2022/12/11 07:50:10;;;;;;;3.00;2.10;;;5.00;87.70;;;;;;5032802;28;20117;-11
2022/12/11 07:52:36;;;;;;;3.38;1.80;;;5.00;87.50;;;;;;5031197;28;20045;-12
2022/12/11 07:55:03;;;;;;;3.65;1.80;;;5.00;87.70;;;;;;5032606;28;20021;-14
2022/12/11 07:57:28;;;;;;;2.28;1.80;;;5.00;87.40;;;;;;5033117;28;20032;-12
2022/12/11 07:59:54;;;;;;;2.50;1.90;;;5.00;87.40;;;;;;5032602;28;20022;-12
2022/12/11 08:02:21;;;;;;;2.78;1.67;;;5.00;87.60;;;;;;5032453;28;20073;-12
2022/12/11 08:04:49;;;;;;;2.00;1.60;;;5.00;86.90;;;;;;5032480;28;20386;-12
2022/12/11 08:07:15;;;;;;;1.98;1.80;;;5.00;86.90;;;;;;5033200;28;20485;-12
2022/12/11 08:09:41;;;;;;;2.03;1.83;;;5.00;87.10;;;;;;5032627;28;20028;-12
2022/12/11 08:12:06;;;;;;;3.35;1.83;;;5.10;87.20;;;;;;5032965;28;20097;-12
2022/12/11 08:14:32;;;;;;;2.15;1.73;;;5.10;86.70;;;;;;5032416;28;20029;-13
2022/12/11 08:17:01;;;;;;;2.58;2.08;;;5.10;86.50;;;;;;5032657;28;20025;-13
2022/12/11 08:19:27;;;;;;;2.00;1.67;;;5.10;86.70;;;;;;5032483;28;20025;-13
2022/12/11 08:21:53;;;;;;;3.63;1.98;;;5.10;86.60;;;;;;5032338;28;20026;-12
2022/12/11 08:24:19;;;;;;;2.40;1.83;;;5.10;86.30;;;;;;5032457;28;20033;-13
2022/12/11 08:26:47;;;;;;;2.05;1.40;;;5.10;86.60;;;;;;5033185;28;20109;-12
2022/12/11 08:29:13;;;;;;;2.33;1.38;;;5.10;86.50;;;;;;5032579;28;20037;-11
2022/12/11 08:31:39;;;;;;;1.65;1.55;;;5.10;86.50;;;;;;5032604;28;20045;-12
2022/12/11 08:34:05;;;;;;;2.25;1.88;;;5.10;86.30;;;;;;5032487;28;20091;-12
2022/12/11 08:36:31;;;;;;;2.28;1.70;;;5.20;86.70;;;;;;5031204;28;20033;-14
2022/12/11 08:38:57;;;;;;;2.63;1.60;;;5.20;86.40;;;;;;5032543;28;20382;-12
2022/12/11 08:41:26;;;;;;;2.38;2.15;;;5.20;86.50;;;;;;5032370;28;20115;-13
2022/12/11 08:43:54;;;;;;;2.25;1.90;;;5.20;86.60;;;;;;5032229;28;20029;-12
2022/12/11 08:46:24;;;;;;;3.03;2.10;;;5.20;86.80;;;;;;5031048;28;20034;-13
2022/12/11 08:48:51;;;;;;;4.07;2.33;;;5.30;86.70;;;;;;5032193;28;20036;-13
2022/12/11 08:51:21;;;;;;;2.90;2.10;;;5.30;87.10;;;;;;5032250;28;20022;-14
2022/12/11 08:53:47;;;;;;;2.00;1.80;;;5.30;86.60;;;;;;5032257;28;20026;-12
2022/12/11 08:56:16;;;;;;;3.20;2.58;;;5.40;86.70;;;;;;5031033;28;20049;-12
2022/12/11 08:58:43;;;;;;;3.97;2.22;;;5.30;86.60;;;;;;5032551;28;20061;-12
2022/12/11 09:01:12;;;;;;;2.58;2.03;;;5.30;86.50;;;;;;5030426;28;20045;-12
2022/12/11 09:03:39;;;;;;;2.17;1.98;;;5.30;86.30;;;;;;5030750;28;20095;-12
2022/12/11 09:06:11;;;;;;;3.22;2.20;;;5.30;86.40;;;;;;5035339;28;20036;-13
2022/12/11 09:08:37;;;;;;;2.88;2.30;;;5.30;86.60;;;;;;5034569;28;20096;-13
2022/12/11 09:11:09;;;;;;;3.55;2.58;;;5.30;86.30;;;;;;5035647;28;20112;-12
2022/12/11 09:13:37;;;;;;;4.50;2.67;;;5.30;86.40;;;;;;5035679;28;20547;-12
2022/12/11 09:16:05;;;;;;;3.88;2.55;;;5.30;86.30;;;;;;5035668;28;20048;-12
2022/12/11 09:18:31;;;;;;;3.47;2.42;;;5.30;86.40;;;;;;5035653;28;20025;-13
2022/12/11 09:21:19;;;;;;;5.30;2.85;;;5.30;86.60;;;;;;5035318;28;20025;-13
2022/12/11 09:23:45;;;;;;;5.70;3.90;;;5.30;86.80;;;;;;5035879;28;20025;-12
2022/12/11 09:26:14;;;;;;;6.13;3.90;;;5.30;86.90;;;;;;5035461;28;20037;-11
2022/12/11 09:28:41;;;;;;;7.00;4.57;;;5.40;86.90;;;;;;5035682;28;20021;-12
2022/12/11 09:31:09;;;;;;;9.65;5.60;;;5.40;86.90;;;;;;5035206;28;20496;-12
2022/12/11 09:33:35;;;;;;;7.45;4.57;;;5.40;86.80;;;;;;5035218;28;20028;-13
2022/12/11 09:36:02;;;;;;;4.60;3.13;;;5.40;86.80;;;;;;5034003;28;20034;-12
2022/12/11 09:38:29;;;;;;;4.80;3.50;;;5.40;86.70;;;;;;5035513;28;20136;-12
2022/12/11 09:40:55;;;;;;;6.25;4.07;;;5.40;86.60;;;;;;5035046;28;20041;-12
2022/12/11 09:43:43;;;;;;;6.45;5.22;;;5.40;86.30;;;;;;5033652;28;20037;-12
2022/12/11 09:46:12;;;;;;;7.35;5.00;;;5.40;86.20;;;;;;5035237;28;20021;-13
2022/12/11 09:48:41;;;;;;;6.90;4.47;;;5.40;86.00;;;;;;5035371;28;20033;-13
2022/12/11 09:51:17;;;;;;;7.32;4.32;;;5.40;86.10;;;;;;5034690;28;20079;-12
2022/12/11 09:53:44;;;;;;;17.17;10.85;;;5.40;86.10;;;;;;5034871;28;20041;-12
2022/12/11 09:56:27;;;;;;;7.82;4.70;;;5.40;86.30;;;;;;5035249;28;20028;-12
2022/12/11 09:59:35;;;;;;;8.55;5.78;;;5.40;86.30;;;;;;5034750;28;20472;-12
2022/12/11 10:02:35;;;;;;;6.85;4.70;;;5.40;86.50;;;;;;5034634;28;20053;-12
2022/12/11 10:05:20;;;;;;;5.72;3.58;;;5.40;86.40;;;;;;5034610;28;20033;-13
2022/12/11 10:08:10;;;;;;;3.75;2.80;;;5.40;86.50;;;;;;5034741;28;20029;-11
2022/12/11 10:10:44;;;;;;;3.25;2.33;;;5.40;86.60;;;;;;5035502;28;20032;-12
2022/12/11 10:13:29;;;;;;;2.38;2.13;;;5.40;85.60;;;;;;5034313;28;20508;-11
2022/12/11 10:16:10;;;;;;;3.38;2.05;;;5.40;86.00;;;;;;5034397;28;20079;-12
2022/12/11 10:18:37;;;;;;;3.03;1.98;;;5.40;84.80;;;;;;5034970;28;20029;-12
2022/12/11 10:21:03;;;;;;;2.80;2.35;;;5.40;85.30;;;;;;5034227;28;20029;-11
2022/12/11 10:23:55;;;;;;;3.53;2.30;;;5.40;85.50;;;;;;5035119;28;20095;-12
2022/12/11 10:26:22;;;;;;;3.42;2.60;;;5.40;85.10;;;;;;5027939;28;20046;-13
2022/12/11 10:28:48;;;;;;;4.05;2.53;;;5.40;85.40;;;;;;5034781;28;20362;-12
2022/12/11 10:31:38;;;;;;;4.10;2.67;;;5.40;85.70;;;;;;5034337;28;20486;-12
2022/12/11 10:34:17;;;;;;;4.75;2.45;;;5.40;85.70;;;;;;5034187;28;20025;-13
2022/12/11 10:36:44;;;;;;;3.92;2.55;;;5.40;85.70;;;;;;5034178;28;20045;-13
2022/12/11 10:39:14;;;;;;;4.43;2.80;;;5.40;86.10;;;;;;5033943;28;20034;-13
2022/12/11 10:41:43;;;;;;;1.80;1.58;;;5.30;85.30;;;;;;5033911;28;20029;-12
2022/12/11 10:44:21;;;;;;;2.92;2.55;;;5.20;84.40;;;;;;5034392;28;20029;-13
2022/12/11 10:47:09;;;;;;;3.30;1.73;;;5.30;85.10;;;;;;5033680;28;20026;-13
2022/12/11 10:49:37;;;;;;;3.65;2.63;;;5.10;84.00;;;;;;5033398;28;20092;-11
2022/12/11 10:52:22;;;;;;;3.83;2.67;;;5.10;84.40;;;;;;5034222;28;20022;-13
2022/12/11 10:54:59;;;;;;;2.13;1.67;;;5.00;85.00;;;;;;5032501;28;20056;-13
2022/12/11 10:57:28;;;;;;;2.30;2.00;;;5.00;84.10;;;;;;5033951;28;20025;-13
2022/12/11 10:59:54;;;;;;;2.92;2.13;;;4.90;84.10;;;;;;5033666;28;20033;-14
2022/12/11 11:02:27;;;;;;;3.70;2.22;;;4.90;84.00;;;;;;5032128;28;20073;-13
2022/12/11 11:04:55;;;;;;;3.07;1.90;;;4.80;84.40;;;;;;5033686;28;20025;-13
2022/12/11 11:07:25;;;;;;;2.50;2.08;;;4.80;84.40;;;;;;5033962;28;20026;-13
2022/12/11 11:10:11;;;;;;;2.63;2.13;;;4.60;84.20;;;;;;5033655;28;20029;-12
2022/12/11 11:12:47;;;;;;;7.82;2.90;;;4.60;84.50;;;;;;5033674;28;20469;-13
2022/12/11 11:15:16;;;;;;;3.72;2.22;;;4.50;84.60;;;;;;5032427;28;20025;-13
2022/12/11 11:17:53;;;;;;;2.83;1.80;;;4.50;84.80;;;;;;5033395;28;20481;-13
2022/12/11 11:20:26;;;;;;;3.10;2.00;;;4.40;85.30;;;;;;5032359;28;20116;-13
2022/12/11 11:23:01;;;;;;;3.13;1.75;;;4.40;85.30;;;;;;5033676;28;20076;-13
2022/12/11 11:25:31;;;;;;;2.42;2.13;;;4.40;85.00;;;;;;5033557;28;20037;-13
2022/12/11 11:27:59;;;;;;;5.55;2.80;;;4.40;85.60;;;;;;5032790;28;20547;-14
2022/12/11 11:30:30;;;;;;;2.75;2.20;;;4.40;85.80;;;;;;5033642;28;20026;-14
2022/12/11 11:33:01;;;;;;;3.60;2.17;;;4.40;86.10;;;;;;5032447;28;20108;-14
2022/12/11 11:35:29;;;;;;;4.18;2.13;;;4.40;86.20;;;;;;5033449;28;20040;-13
2022/12/11 11:38:17;;;;;;;2.95;2.15;;;4.50;86.10;;;;;;5033160;28;20017;-14
2022/12/11 11:41:01;;;;;;;2.88;2.13;;;4.50;85.70;;;;;;5033113;28;20562;-14
2022/12/11 11:43:30;;;;;;;2.97;1.92;;;4.50;85.20;;;;;;5033077;28;20037;-13
2022/12/11 11:46:24;;;;;;;2.30;2.10;;;4.50;85.90;;;;;;5032911;28;20478;-13
2022/12/11 11:49:02;;;;;;;2.17;1.90;;;4.40;85.50;;;;;;5032726;28;20033;-14
2022/12/11 11:51:35;;;;;;;3.85;2.08;;;4.40;85.60;;;;;;5033844;28;20469;-13
2022/12/11 11:54:08;;;;;;;3.55;2.20;;;4.40;85.60;;;;;;5032927;28;20443;-14
2022/12/11 11:56:36;;;;;;;2.43;2.03;;;4.40;85.30;;;;;;5033240;28;20167;-12
2022/12/11 11:59:06;;;;;;;2.75;2.00;;;4.40;84.80;;;;;;5032624;28;20060;-13
2022/12/11 12:01:31;;;;;;;2.83;2.17;;;4.30;84.90;;;;;;5032553;28;20049;-14
2022/12/11 12:04:00;;;;;;;3.42;2.20;;;4.20;85.50;;;;;;5032983;28;20028;-13
2022/12/11 12:06:43;;;;;;;3.58;2.40;;;4.20;85.30;;;;;;5033060;28;20044;-13
2022/12/11 12:09:12;;;;;;;4.35;2.60;;;4.20;85.30;;;;;;5032661;28;20057;-13
2022/12/11 12:11:38;;;;;;;3.50;2.30;;;4.10;85.70;;;;;;5033018;28;20025;-14
2022/12/11 12:14:19;;;;;;;6.68;4.18;;;4.20;85.70;;;;;;5032582;28;20064;-14
2022/12/11 12:17:04;;;;;;;3.58;2.35;;;4.20;86.00;;;;;;5032840;28;20017;-14
2022/12/11 12:19:49;;;;;;;2.50;1.98;;;4.20;85.90;;;;;;5032633;28;20069;-14
2022/12/11 12:22:29;;;;;;;3.10;2.10;;;4.20;85.40;;;;;;5033017;28;20037;-14
2022/12/11 12:25:09;;;;;;;3.08;2.05;;;4.20;85.50;;;;;;5032441;28;20025;-14
2022/12/11 12:27:50;;;;;;;4.32;2.42;;;4.20;85.70;;;;;;5032447;28;20028;-14
2022/12/11 12:30:17;;;;;;;3.65;2.33;;;4.20;85.50;;;;;;5032375;28;20433;-13
2022/12/11 12:33:02;;;;;;;3.72;2.60;;;4.20;85.40;;;;;;5032500;28;20029;-14
2022/12/11 12:35:35;;;;;;;4.38;2.55;;;4.20;85.50;;;;;;5032791;28;20099;-13
2022/12/11 12:38:11;;;;;;;3.53;2.38;;;4.10;85.40;;;;;;5032557;28;20022;-14
2022/12/11 12:40:37;;;;;;;3.42;1.92;;;4.10;85.60;;;;;;5036680;28;20039;-13
2022/12/11 12:43:18;;;;;;;3.70;2.28;;;4.10;85.20;;;;;;5036385;28;20124;-13
2022/12/11 12:46:15;;;;;;;4.05;2.53;;;4.10;85.10;;;;;;5036619;28;20045;-12
2022/12/11 12:48:41;;;;;;;4.43;2.40;;;4.10;85.30;;;;;;5036276;28;20493;-13
2022/12/11 12:51:12;;;;;;;4.40;2.28;;;4.00;84.80;;;;;;5036277;28;20029;-13
2022/12/11 12:53:40;;;;;;;3.35;2.45;;;4.00;85.20;;;;;;5036140;28;20496;-13
2022/12/11 12:56:07;;;;;;;4.68;2.65;;;4.00;85.20;;;;;;5036076;28;20036;-13
2022/12/11 12:58:33;;;;;;;4.40;2.75;;;4.00;85.20;;;;;;5036005;28;20057;-13
2022/12/11 13:01:08;;;;;;;5.78;3.03;;;4.00;85.60;;;;;;5035439;28;20135;-12
2022/12/11 13:03:48;;;;;;;3.60;2.60;;;4.00;85.70;;;;;;5035974;28;20539;-12
2022/12/11 13:06:14;;;;;;;4.20;2.75;;;4.00;85.80;;;;;;5035978;28;20037;-13
2022/12/11 13:08:49;;;;;;;4.60;2.88;;;4.00;85.70;;;;;;5036165;28;20124;-12
2022/12/11 13:11:17;;;;;;;4.75;2.40;;;4.00;85.70;;;;;;5036409;28;20101;-13
2022/12/11 13:14:01;;;;;;;3.80;2.67;;;4.00;85.70;;;;;;5036078;28;20469;-13
2022/12/11 13:16:48;;;;;;;2.58;2.30;;;4.00;85.40;;;;;;5034571;28;20064;-14
2022/12/11 13:19:25;;;;;;;5.75;4.18;;;4.00;85.30;;;;;;5005628;28;20463;-12